South Fillmore, Illinois
Current Conditions -  °F | °C
As of 10:35 AM on Wednesday 22 Oct 2014 (Local Time) from K3LF Reporting Station
Clear Clear  
Wind Chill: 51°   Ceiling: Unl
Heat Index: 51°   Visibility: 10mi
Dew Point: 42°   Wind: 5mph
Humidity: 70%   Direction: 120°ESE
Pressure: 30.34"   Gusts: NA
Location:  39.1009°N, 89.3067°W
Report Text: K3LF 221535Z AUTO 12004KT 10SM CLR 11/05 A3034 RMK AO2 T01070054
Loading
Personal Weather Stations






























Interactive Weather Map
Tropical Storm Tracking
New forecast layout! Learn more

10-Day Weather Forecast

Advertisements
Track Severe Weather on mobile